createdAt,value
2023-02-07T00:00:52.751Z,12.27
2023-02-07T00:03:56.679Z,13.35
2023-02-07T00:06:59.312Z,13.10
2023-02-07T00:10:01.944Z,13.60
2023-02-07T00:13:06.332Z,11.77
2023-02-07T00:16:09.873Z,12.70
2023-02-07T00:19:12.649Z,11.43
2023-02-07T00:22:15.353Z,11.45
2023-02-07T00:25:18.345Z,10.18
2023-02-07T00:28:21.132Z,11.27
2023-02-07T00:31:30.512Z,11.97
2023-02-07T00:34:36.203Z,12.20
2023-02-07T00:37:40.857Z,11.48
2023-02-07T00:40:43.454Z,10.57
2023-02-07T00:43:48.171Z,10.93
2023-02-07T00:46:50.828Z,12.57
2023-02-07T00:49:54.330Z,10.95
2023-02-07T00:52:57.151Z,11.27
2023-02-07T00:55:59.892Z,13.65
2023-02-07T00:59:02.612Z,10.98
2023-02-07T01:02:06.414Z,11.40
2023-02-07T01:05:10.457Z,11.27
2023-02-07T01:08:14.127Z,12.20
2023-02-07T01:11:18.915Z,11.20
2023-02-07T01:14:21.683Z,10.63
2023-02-07T01:17:24.700Z,11.70
2023-02-07T01:20:28.991Z,10.43
2023-02-07T01:23:32.215Z,10.77
2023-02-07T01:26:36.269Z,11.52
2023-02-07T01:29:39.099Z,11.82
2023-02-07T01:32:41.785Z,10.20
2023-02-07T01:35:47.141Z,10.60
2023-02-07T01:38:51.487Z,12.60
2023-02-07T01:41:54.542Z,11.02
2023-02-07T01:45:04.545Z,10.52
2023-02-07T01:48:20.388Z,11.27
2023-02-07T01:51:24.667Z,12.52
2023-02-07T01:54:33.639Z,9.70
2023-02-07T01:57:36.892Z,11.77
2023-02-07T02:00:39.866Z,11.20
2023-02-07T02:03:46.254Z,10.80
2023-02-07T02:06:49.180Z,10.07
2023-02-07T02:09:52.027Z,11.32
2023-02-07T02:13:12.847Z,11.35
2023-02-07T02:16:44.802Z,10.52
2023-02-07T02:20:02.436Z,10.13
2023-02-07T02:23:05.160Z,9.55
2023-02-07T02:26:42.207Z,11.20
2023-02-07T02:29:51.072Z,10.95
2023-02-07T02:33:18.418Z,9.95
2023-02-07T02:36:46.081Z,9.83
2023-02-07T02:40:30.601Z,10.63
2023-02-07T02:43:42.342Z,10.40
2023-02-07T02:46:45.952Z,10.50
2023-02-07T02:49:49.291Z,10.73
2023-02-07T02:52:52.831Z,9.77
2023-02-07T02:56:28.581Z,10.90
2023-02-07T02:59:56.063Z,9.80
2023-02-07T03:03:15.376Z,10.18
2023-02-07T03:06:37.902Z,9.90
2023-02-07T03:10:07.773Z,10.60
2023-02-07T03:13:25.424Z,10.57
2023-02-07T03:16:35.346Z,10.27
2023-02-07T03:20:09.584Z,9.77
2023-02-07T03:23:16.662Z,10.27
2023-02-07T03:26:21.612Z,10.40
2023-02-07T03:29:30.851Z,9.30
2023-02-07T03:32:39.775Z,9.95
2023-02-07T03:35:57.648Z,10.15
2023-02-07T03:39:00.473Z,10.25
2023-02-07T03:42:07.875Z,10.70
2023-02-07T03:45:15.315Z,10.32
2023-02-07T03:48:18.164Z,9.63
2023-02-07T03:51:20.851Z,9.90
2023-02-07T03:54:23.466Z,9.45
2023-02-07T03:57:26.097Z,10.47
2023-02-07T04:00:28.869Z,9.43
2023-02-07T04:03:31.787Z,10.25
2023-02-07T04:06:34.748Z,9.75
2023-02-07T04:09:37.614Z,10.27
2023-02-07T04:12:40.330Z,9.20
2023-02-07T04:15:43.391Z,11.43
2023-02-07T04:18:45.941Z,10.98
2023-02-07T04:21:48.930Z,9.52
2023-02-07T04:24:51.560Z,9.90
2023-02-07T04:27:54.296Z,10.40
2023-02-07T04:30:57.224Z,10.60
2023-02-07T04:33:59.966Z,10.52
2023-02-07T04:37:02.860Z,9.88
2023-02-07T04:40:05.853Z,11.00
2023-02-07T04:43:10.780Z,9.97
2023-02-07T04:46:13.614Z,10.27
2023-02-07T04:49:16.606Z,10.10
2023-02-07T04:52:19.354Z,11.02
2023-02-07T04:55:22.902Z,10.35
2023-02-07T04:58:25.999Z,9.33
2023-02-07T05:01:28.679Z,10.13
2023-02-07T05:04:31.475Z,11.32
2023-02-07T05:07:34.140Z,10.48
2023-02-07T05:10:37.368Z,11.65
2023-02-07T05:13:40.029Z,10.17
2023-02-07T05:16:42.683Z,9.25
2023-02-07T05:19:46.116Z,9.70
2023-02-07T05:22:48.938Z,9.75
2023-02-07T05:25:51.522Z,10.15
2023-02-07T05:28:54.490Z,10.53
2023-02-07T05:32:15.941Z,9.73
2023-02-07T05:35:18.601Z,9.88
2023-02-07T05:38:21.741Z,9.68
2023-02-07T05:41:24.375Z,10.40
2023-02-07T05:44:26.999Z,11.53
2023-02-07T05:47:29.645Z,10.30
2023-02-07T05:50:32.596Z,9.98
2023-02-07T05:53:41.680Z,10.85
2023-02-07T05:56:44.553Z,11.18
2023-02-07T05:59:47.572Z,10.90
2023-02-07T06:02:50.211Z,10.93
2023-02-07T06:05:52.982Z,11.48
2023-02-07T06:08:56.058Z,10.50
2023-02-07T06:12:25.539Z,11.35
2023-02-07T06:15:28.563Z,10.33
2023-02-07T06:18:31.340Z,12.45
2023-02-07T06:21:45.755Z,10.88
2023-02-07T06:24:49.124Z,11.13
2023-02-07T06:27:51.996Z,10.90
2023-02-07T06:30:55.466Z,11.13
2023-02-07T06:33:58.333Z,10.25
2023-02-07T06:37:01.141Z,10.63
2023-02-07T06:40:04.270Z,10.52
2023-02-07T06:43:09.043Z,12.50
2023-02-07T06:46:12.172Z,9.50
2023-02-07T06:49:15.223Z,9.73
2023-02-07T06:52:18.401Z,8.45
2023-02-07T06:55:22.606Z,10.93
2023-02-07T06:58:26.061Z,13.20
2023-02-07T07:01:30.430Z,9.30
2023-02-07T07:04:33.521Z,10.38
2023-02-07T07:07:37.011Z,9.82
2023-02-07T07:10:40.603Z,10.57
2023-02-07T07:13:43.980Z,11.15
2023-02-07T07:16:47.358Z,11.63
2023-02-07T07:19:50.001Z,10.50
2023-02-07T07:22:54.375Z,11.20
2023-02-07T07:25:57.421Z,9.43
2023-02-07T07:29:02.435Z,9.27
2023-02-07T07:32:06.702Z,10.00
2023-02-07T07:35:10.150Z,11.20
2023-02-07T07:38:13.345Z,9.20
2023-02-07T07:41:37.762Z,9.95
2023-02-07T07:44:43.102Z,10.48
2023-02-07T07:47:56.705Z,10.63
2023-02-07T07:51:00.210Z,9.77
2023-02-07T07:54:03.334Z,11.10
2023-02-07T07:57:05.994Z,11.27
2023-02-07T08:00:11.983Z,9.50
2023-02-07T08:03:23.897Z,11.03
2023-02-07T08:06:26.511Z,13.93
2023-02-07T08:09:29.256Z,9.98
2023-02-07T08:12:32.408Z,11.10
2023-02-07T08:15:36.744Z,8.98
2023-02-07T08:18:44.617Z,9.53
2023-02-07T08:21:47.736Z,11.90
2023-02-07T08:24:50.356Z,10.70
2023-02-07T08:27:54.757Z,9.63
2023-02-07T08:31:06.741Z,9.63
2023-02-07T08:34:12.179Z,9.13
2023-02-07T08:37:14.882Z,12.25
2023-02-07T08:40:18.520Z,9.70
2023-02-07T08:43:21.941Z,10.27
2023-02-07T08:46:24.899Z,9.90
2023-02-07T08:49:27.509Z,10.90
2023-02-07T08:52:30.218Z,11.25
2023-02-07T08:55:34.420Z,10.32
2023-02-07T08:58:38.257Z,11.90
2023-02-07T09:01:41.152Z,10.98
2023-02-07T09:04:44.319Z,9.60
2023-02-07T09:07:48.730Z,13.52
2023-02-07T09:10:51.632Z,13.02
2023-02-07T09:13:54.641Z,12.18
2023-02-07T09:16:57.572Z,14.48
2023-02-07T09:20:00.605Z,10.13
2023-02-07T09:23:19.379Z,10.50
2023-02-07T09:26:23.620Z,10.82
2023-02-07T09:29:26.601Z,11.35
2023-02-07T09:32:30.316Z,9.45
2023-02-07T09:35:38.813Z,10.17
2023-02-07T09:38:41.596Z,9.35
2023-02-07T09:42:22.387Z,11.30
2023-02-07T09:45:33.500Z,11.65
2023-02-07T09:48:45.558Z,10.95
2023-02-07T09:51:50.109Z,11.80
2023-02-07T09:54:56.215Z,12.15
2023-02-07T09:58:07.450Z,11.50
2023-02-07T10:01:22.610Z,10.30
2023-02-07T10:04:32.195Z,11.52
2023-02-07T10:07:34.886Z,11.47
2023-02-07T10:11:36.291Z,13.38
2023-02-07T10:15:17.637Z,11.35
2023-02-07T10:18:32.133Z,12.70
2023-02-07T10:22:05.357Z,12.95
2023-02-07T10:25:34.462Z,11.63
2023-02-07T10:28:57.627Z,11.50
2023-02-07T10:32:11.093Z,15.65
2023-02-07T10:35:21.492Z,10.38
2023-02-07T10:38:38.193Z,12.70
2023-02-07T10:41:44.971Z,12.93
2023-02-07T10:44:48.693Z,12.40
2023-02-07T10:47:52.470Z,12.90
2023-02-07T10:50:57.734Z,11.88
2023-02-07T10:54:08.804Z,14.25
2023-02-07T10:57:18.270Z,12.53
2023-02-07T11:00:28.990Z,13.32
2023-02-07T11:03:31.896Z,13.63
2023-02-07T11:06:39.226Z,11.50
2023-02-07T11:09:42.402Z,16.40
2023-02-07T11:12:54.294Z,11.50
2023-02-07T11:16:10.814Z,11.25
2023-02-07T11:19:48.730Z,10.98
2023-02-07T11:22:57.185Z,12.70
2023-02-07T11:26:20.749Z,10.63
2023-02-07T11:29:25.372Z,12.00
2023-02-07T11:32:29.153Z,12.98
2023-02-07T11:35:33.096Z,14.15
2023-02-07T11:38:51.971Z,11.75
2023-02-07T11:41:59.444Z,10.27
2023-02-07T11:45:13.522Z,13.07
2023-02-07T11:48:25.897Z,12.93
2023-02-07T11:51:32.564Z,14.23
2023-02-07T11:54:39.208Z,11.35
2023-02-07T11:57:46.026Z,13.27
2023-02-07T12:00:49.600Z,15.03
2023-02-07T12:04:01.171Z,12.88
2023-02-07T12:07:35.304Z,13.98
2023-02-07T12:10:41.946Z,17.00
2023-02-07T12:13:50.564Z,14.88
2023-02-07T12:16:58.312Z,13.33
2023-02-07T12:20:29.068Z,13.75
2023-02-07T12:23:54.377Z,11.73
2023-02-07T12:27:09.192Z,13.98
2023-02-07T12:30:33.009Z,13.98
2023-02-07T12:33:52.045Z,13.33
2023-02-07T12:37:07.759Z,10.75
2023-02-07T12:40:39.974Z,11.75
2023-02-07T12:44:09.835Z,11.95
2023-02-07T12:47:37.274Z,12.75
2023-02-07T12:51:04.731Z,13.07
2023-02-07T12:54:24.625Z,14.73
2023-02-07T12:57:43.641Z,13.65
2023-02-07T13:01:24.563Z,11.20
2023-02-07T13:05:10.280Z,12.45
2023-02-07T13:08:34.198Z,13.57
2023-02-07T13:11:55.314Z,14.80
2023-02-07T13:15:26.412Z,13.27
2023-02-07T13:18:41.148Z,13.13
2023-02-07T13:21:50.156Z,11.80
2023-02-07T13:24:54.063Z,11.03
2023-02-07T13:28:01.529Z,12.27
2023-02-07T13:31:08.130Z,11.48
2023-02-07T13:34:26.415Z,11.80
2023-02-07T13:37:40.521Z,10.45
2023-02-07T13:40:59.033Z,13.00
2023-02-07T13:44:28.295Z,9.35
2023-02-07T13:47:44.274Z,10.80
2023-02-07T13:51:16.707Z,10.90
2023-02-07T13:54:46.841Z,10.05
2023-02-07T13:58:08.543Z,13.73
2023-02-07T14:01:25.122Z,10.88
2023-02-07T14:04:51.364Z,11.23
2023-02-07T14:08:23.138Z,12.20
2023-02-07T14:11:43.971Z,11.57
2023-02-07T14:15:01.442Z,10.00
2023-02-07T14:18:26.164Z,10.43
2023-02-07T14:21:31.993Z,10.85
2023-02-07T14:24:34.565Z,13.48
2023-02-07T14:28:06.512Z,13.88
2023-02-07T14:31:23.992Z,10.83
2023-02-07T14:34:32.242Z,10.70
2023-02-07T14:37:53.780Z,12.80
2023-02-07T14:41:10.771Z,10.63
2023-02-07T14:44:35.804Z,11.30
2023-02-07T14:47:38.555Z,11.47
2023-02-07T14:50:51.063Z,10.35
2023-02-07T14:54:17.593Z,11.20
2023-02-07T14:58:00.551Z,12.93
2023-02-07T15:01:14.864Z,9.85
2023-02-07T15:04:17.493Z,12.23
2023-02-07T15:07:20.148Z,10.80
2023-02-07T15:10:24.484Z,10.88
2023-02-07T15:13:34.923Z,10.85
2023-02-07T15:16:41.195Z,11.30
2023-02-07T15:19:43.918Z,11.13
2023-02-07T15:22:52.982Z,9.93
2023-02-07T15:25:55.939Z,12.18
2023-02-07T15:29:06.476Z,10.60
2023-02-07T15:32:23.160Z,10.13
2023-02-07T15:35:29.033Z,11.90
2023-02-07T15:38:31.832Z,11.77
2023-02-07T15:41:35.162Z,12.23
2023-02-07T15:44:52.474Z,10.52
2023-02-07T15:48:04.049Z,11.75
2023-02-07T15:51:07.447Z,10.63
2023-02-07T15:54:18.424Z,9.40
2023-02-07T15:57:33.794Z,9.52
2023-02-07T16:00:40.394Z,13.60
2023-02-07T16:03:47.486Z,11.40
2023-02-07T16:06:58.821Z,11.30
2023-02-07T16:10:19.387Z,13.15
2023-02-07T16:13:23.791Z,10.85
2023-02-07T16:16:28.706Z,10.77
2023-02-07T16:19:33.338Z,11.55
2023-02-07T16:22:36.498Z,13.90
2023-02-07T16:25:41.236Z,13.07
2023-02-07T16:28:45.898Z,27.52
2023-02-07T16:31:50.018Z,16.20
2023-02-07T16:34:59.673Z,18.05
2023-02-07T16:38:03.071Z,13.80
2023-02-07T16:41:05.971Z,17.77
2023-02-07T16:44:16.918Z,18.85
2023-02-07T16:47:19.660Z,16.33
2023-02-07T16:50:26.111Z,14.77
2023-02-07T16:53:30.191Z,16.93
2023-02-07T16:56:33.601Z,15.13
2023-02-07T16:59:36.814Z,18.92
2023-02-07T17:02:39.682Z,16.55
2023-02-07T17:05:42.367Z,15.98
2023-02-07T17:08:46.134Z,17.57
2023-02-07T17:11:49.190Z,13.20
2023-02-07T17:14:53.003Z,18.77
2023-02-07T17:17:58.596Z,16.13
2023-02-07T17:21:01.923Z,15.05
2023-02-07T17:24:05.324Z,16.37
2023-02-07T17:27:10.588Z,17.80
2023-02-07T17:30:20.992Z,16.77
2023-02-07T17:33:26.370Z,17.00
2023-02-07T17:36:32.647Z,18.85
2023-02-07T17:39:37.947Z,21.13
2023-02-07T17:42:43.304Z,16.65
2023-02-07T17:45:47.433Z,21.08
2023-02-07T17:48:52.003Z,17.65
2023-02-07T17:51:56.263Z,19.85
2023-02-07T17:55:00.262Z,17.80
2023-02-07T17:58:04.910Z,19.92
2023-02-07T18:01:09.522Z,17.60
2023-02-07T18:04:14.282Z,15.90
2023-02-07T18:07:18.204Z,20.55
2023-02-07T18:10:31.922Z,19.97
2023-02-07T18:13:36.072Z,18.27
2023-02-07T18:16:40.609Z,18.15
2023-02-07T18:19:45.059Z,17.73
2023-02-07T18:22:55.012Z,16.38
2023-02-07T18:26:01.068Z,18.67
2023-02-07T18:29:05.720Z,18.23
2023-02-07T18:32:13.433Z,16.27
2023-02-07T18:35:19.256Z,20.10
2023-02-07T18:38:23.221Z,17.80
2023-02-07T18:41:27.682Z,18.67
2023-02-07T18:44:31.778Z,18.13
2023-02-07T18:47:36.570Z,17.05
2023-02-07T18:50:45.419Z,18.52
2023-02-07T18:53:57.041Z,18.48
2023-02-07T18:57:02.128Z,17.97
2023-02-07T19:00:10.156Z,18.25
2023-02-07T19:03:16.121Z,20.05
2023-02-07T19:06:26.860Z,16.65
2023-02-07T19:09:33.472Z,16.55
2023-02-07T19:12:37.382Z,17.93
2023-02-07T19:15:41.393Z,19.42
2023-02-07T19:18:47.075Z,17.58
2023-02-07T19:21:51.586Z,14.77
2023-02-07T19:24:58.119Z,17.45
2023-02-07T19:28:02.319Z,16.30
2023-02-07T19:31:11.000Z,16.63
2023-02-07T19:34:17.065Z,16.63
2023-02-07T19:37:23.095Z,13.90
2023-02-07T19:40:27.892Z,15.27
2023-02-07T19:43:35.899Z,15.03
2023-02-07T19:46:40.793Z,14.70
2023-02-07T19:49:46.015Z,14.52
2023-02-07T19:52:50.308Z,15.68
2023-02-07T19:55:59.908Z,15.18
2023-02-07T19:59:06.143Z,15.47
2023-02-07T20:02:13.598Z,15.73
2023-02-07T20:05:17.604Z,15.30
2023-02-07T20:08:25.504Z,14.35
2023-02-07T20:11:30.601Z,14.32
2023-02-07T20:14:34.609Z,13.43
2023-02-07T20:17:39.389Z,13.35
2023-02-07T20:20:48.341Z,13.95
2023-02-07T20:23:55.352Z,15.55
2023-02-07T20:27:00.218Z,14.10
2023-02-07T20:30:07.178Z,13.03
2023-02-07T20:33:12.199Z,13.25
2023-02-07T20:36:19.077Z,14.13
2023-02-07T20:39:24.588Z,13.68
2023-02-07T20:42:29.097Z,11.48
2023-02-07T20:45:34.529Z,13.97
2023-02-07T20:48:40.068Z,13.40
2023-02-07T20:51:49.177Z,13.18
2023-02-07T20:54:53.630Z,14.27
2023-02-07T20:57:57.378Z,12.80
2023-02-07T21:01:09.581Z,12.57
2023-02-07T21:04:15.556Z,14.40
2023-02-07T21:07:19.498Z,14.57
2023-02-07T21:10:24.339Z,13.85
2023-02-07T21:13:27.756Z,13.65
2023-02-07T21:16:32.161Z,13.53
2023-02-07T21:19:38.486Z,13.07
2023-02-07T21:22:42.093Z,12.50
2023-02-07T21:25:45.870Z,13.63
2023-02-07T21:28:49.662Z,13.82
2023-02-07T21:31:53.150Z,13.33
2023-02-07T21:34:56.953Z,12.93
2023-02-07T21:37:59.759Z,14.15
2023-02-07T21:41:06.564Z,13.40
2023-02-07T21:44:11.915Z,12.30
2023-02-07T21:47:14.760Z,13.27
2023-02-07T21:50:18.298Z,13.27
2023-02-07T21:53:21.035Z,13.95
2023-02-07T21:56:29.115Z,12.93
2023-02-07T21:59:31.981Z,13.77
2023-02-07T22:02:35.883Z,12.57
2023-02-07T22:05:38.586Z,13.20
2023-02-07T22:08:47.381Z,13.57
2023-02-07T22:11:50.289Z,13.63
2023-02-07T22:14:53.065Z,15.00
2023-02-07T22:17:55.713Z,13.13
2023-02-07T22:21:20.126Z,14.63
2023-02-07T22:24:22.732Z,13.20
2023-02-07T22:27:25.386Z,14.13
2023-02-07T22:30:28.096Z,13.35
2023-02-07T22:33:30.692Z,14.17
2023-02-07T22:36:37.526Z,14.60
2023-02-07T22:39:40.137Z,14.13
2023-02-07T22:42:42.828Z,12.50
2023-02-07T22:45:48.570Z,14.23
2023-02-07T22:48:52.268Z,13.23
2023-02-07T22:51:55.062Z,13.50
2023-02-07T22:54:57.860Z,11.88
2023-02-07T22:58:00.408Z,12.25
2023-02-07T23:01:04.953Z,12.73
2023-02-07T23:04:13.260Z,13.27
2023-02-07T23:07:15.933Z,13.05
2023-02-07T23:10:19.184Z,13.38
2023-02-07T23:13:23.573Z,13.77
2023-02-07T23:16:27.882Z,13.02
2023-02-07T23:19:30.600Z,15.27
2023-02-07T23:22:37.627Z,13.05
2023-02-07T23:25:44.970Z,14.07
2023-02-07T23:28:48.351Z,16.55
2023-02-07T23:31:51.082Z,14.18
2023-02-07T23:34:53.843Z,14.17
2023-02-07T23:37:56.511Z,14.20
2023-02-07T23:40:59.876Z,13.60
2023-02-07T23:44:02.932Z,13.05
2023-02-07T23:47:05.640Z,13.10
2023-02-07T23:50:08.831Z,13.50
2023-02-07T23:53:11.682Z,14.05
2023-02-07T23:56:19.958Z,14.25
2023-02-07T23:59:23.009Z,13.95
